Time;durP1;ratioP1;P1;durP2;ratioP2;P2;SDS_P1;SDS_P2;PMS_P1;PMS_P2;Temp;Humidity;BMP_temperature;BMP_pressure;BME280_temperature;BME280_humidity;BME280_pressure;Samples;Min_cycle;Max_cycle;Signal;HPM_P1;HPM_P2
2023/03/31 00:01:03;;;;;;;23.98;16.87;;;;;;;12.27;90.05;99569.84;4407953;32;33482;-78
2023/03/31 00:03:32;;;;;;;22.30;16.20;;;;;;;12.42;89.57;99569.47;4383905;32;32580;-79
2023/03/31 00:06:00;;;;;;;21.03;15.00;;;;;;;12.02;92.17;99572.44;4418182;32;33685;-76
2023/03/31 00:08:34;;;;;;;18.53;13.67;;;;;;;12.34;90.32;99561.44;4395361;32;33724;-76
2023/03/31 00:11:06;;;;;;;18.95;11.45;;;;;;;12.02;91.64;99562.03;4390343;32;33173;-79
2023/03/31 00:13:34;;;;;;;19.33;12.63;;;;;;;11.70;94.97;99561.72;4394912;32;33247;-77
2023/03/31 00:16:04;;;;;;;17.55;13.00;;;;;;;11.58;95.19;99560.44;4389396;32;33470;-78
2023/03/31 00:18:33;;;;;;;17.95;13.15;;;;;;;11.70;94.20;99566.91;4438029;32;34171;-78
2023/03/31 00:21:23;;;;;;;18.85;12.27;;;;;;;11.81;93.50;99563.00;4374204;32;33629;-77
2023/03/31 00:23:56;;;;;;;17.00;11.90;;;;;;;12.07;92.35;99566.56;4401682;32;33230;-79
2023/03/31 00:26:25;;;;;;;16.40;12.20;;;;;;;12.58;89.22;99555.28;4424588;32;33170;-78
2023/03/31 00:28:53;;;;;;;17.37;12.07;;;;;;;12.61;88.21;99560.56;4378797;32;33712;-79
2023/03/31 00:31:21;;;;;;;20.37;13.90;;;;;;;12.71;86.94;99562.66;4439088;32;33644;-77
2023/03/31 00:33:49;;;;;;;22.25;15.10;;;;;;;12.61;86.74;99557.09;4392378;32;33758;-76
2023/03/31 00:36:20;;;;;;;22.62;15.45;;;;;;;12.67;86.54;99560.78;4388817;32;33660;-78
2023/03/31 00:38:48;;;;;;;22.08;17.25;;;;;;;12.63;86.41;99548.50;4375329;32;33449;-80
2023/03/31 00:41:15;;;;;;;24.83;18.33;;;;;;;12.65;86.04;99551.16;4374047;32;87033;-80
2023/03/31 00:44:01;;;;;;;21.75;17.92;;;;;;;12.46;86.88;99544.47;4407813;32;33487;-76
2023/03/31 00:46:42;;;;;;;25.75;18.80;;;;;;;12.26;87.87;99547.28;4389183;32;32619;-77
2023/03/31 00:49:15;;;;;;;23.83;18.45;;;;;;;12.48;86.97;99545.44;4379764;32;33277;-79
2023/03/31 00:51:43;;;;;;;23.23;17.40;;;;;;;12.50;86.60;99544.63;4372450;32;32099;-80
2023/03/31 00:54:11;;;;;;;19.80;15.07;;;;;;;11.59;89.75;99549.25;4413620;32;33569;-77
2023/03/31 00:56:41;;;;;;;22.75;16.70;;;;;;;11.30;91.26;99549.88;4411352;32;33780;-79
2023/03/31 00:59:10;;;;;;;21.00;15.82;;;;;;;11.29;92.24;99553.28;4419031;32;34240;-77
2023/03/31 01:01:41;;;;;;;17.57;14.03;;;;;;;11.02;94.97;99546.22;4375956;32;33055;-80
2023/03/31 01:04:11;;;;;;;20.26;15.04;;;;;;;11.02;94.12;99543.63;4382206;32;33520;-77
2023/03/31 01:06:45;;;;;;;22.13;15.25;;;;;;;11.14;94.66;99541.50;4425265;32;34414;-80
2023/03/31 01:09:15;;;;;;;19.55;14.50;;;;;;;11.49;91.70;99543.66;4416860;32;33386;-78
2023/03/31 01:11:45;;;;;;;20.92;15.25;;;;;;;11.50;90.62;99538.53;4385770;32;33407;-77
2023/03/31 01:14:13;;;;;;;24.90;16.80;;;;;;;11.73;90.66;99535.91;4381840;32;33666;-80
2023/03/31 01:16:40;;;;;;;25.07;15.57;;;;;;;11.79;89.97;99530.91;4418736;32;34445;-80
2023/03/31 01:19:16;;;;;;;25.37;16.02;;;;;;;11.95;88.93;99529.78;4400478;32;34443;-77
2023/03/31 01:22:15;;;;;;;22.55;15.50;;;;;;;11.80;89.43;99532.66;4425922;32;32646;-79
2023/03/31 01:25:07;;;;;;;22.95;15.40;;;;;;;11.77;88.97;99530.00;4447005;32;32964;-78
2023/03/31 01:27:52;;;;;;;16.90;13.55;;;;;;;10.98;90.75;99529.66;4431932;32;33073;-76
2023/03/31 01:30:30;;;;;;;17.97;12.37;;;;;;;10.48;92.69;99541.50;4399936;32;33779;-78
2023/03/31 01:33:31;;;;;;;18.90;13.70;;;;;;;9.75;96.62;99544.41;4406780;32;33642;-76
2023/03/31 01:36:18;;;;;;;21.90;14.55;;;;;;;9.40;100.00;99546.31;4441031;32;33812;-77
2023/03/31 01:39:03;;;;;;;19.90;14.65;;;;;;;9.25;100.00;99542.22;4410677;32;33089;-77
2023/03/31 01:42:02;;;;;;;20.30;14.75;;;;;;;9.04;100.00;99549.00;4392817;32;31722;-79
2023/03/31 01:44:52;;;;;;;19.30;14.23;;;;;;;9.30;100.00;99545.00;4394603;32;32878;-76
2023/03/31 01:47:30;;;;;;;18.73;13.23;;;;;;;9.54;100.00;99544.34;4389975;32;32806;-78
2023/03/31 01:50:06;;;;;;;18.53;12.00;;;;;;;9.51;100.00;99547.69;4402594;32;34186;-80
2023/03/31 01:52:44;;;;;;;15.32;10.63;;;;;;;9.55;100.00;99547.00;4413141;32;32962;-77
2023/03/31 01:55:19;;;;;;;17.43;11.50;;;;;;;9.63;100.00;99548.22;4422330;32;32907;-79
2023/03/31 01:57:51;;;;;;;15.55;10.50;;;;;;;9.80;100.00;99545.50;4378836;32;33051;-80
2023/03/31 02:00:24;;;;;;;14.65;10.23;;;;;;;9.72;100.00;99544.28;4434764;32;33235;-77
2023/03/31 02:03:00;;;;;;;14.70;9.40;;;;;;;10.12;99.55;99549.47;4434934;32;34231;-75
2023/03/31 02:05:42;;;;;;;14.40;9.70;;;;;;;10.85;92.32;99547.28;4437920;32;32607;-78
2023/03/31 02:08:13;;;;;;;13.00;8.73;;;;;;;10.70;94.20;99538.09;4378361;32;33691;-77
2023/03/31 02:10:41;;;;;;;12.68;8.27;;;;;;;11.42;89.53;99532.19;4384646;32;33613;-78
2023/03/31 02:13:10;;;;;;;12.07;8.02;;;;;;;11.90;84.79;99534.81;4394361;32;34028;-76
2023/03/31 02:15:45;;;;;;;13.57;9.02;;;;;;;11.76;84.13;99533.41;4391538;32;33811;-77
2023/03/31 02:18:16;;;;;;;12.68;8.23;;;;;;;10.60;90.82;99541.09;4428428;32;33473;-79
2023/03/31 02:20:46;;;;;;;12.73;7.57;;;;;;;10.41;92.98;99529.09;4405839;32;33227;-76
2023/03/31 02:23:16;;;;;;;11.82;8.43;;;;;;;10.89;91.01;99533.63;4425211;32;32101;-80
2023/03/31 02:25:50;;;;;;;12.52;8.30;;;;;;;10.73;90.40;99527.81;4388206;32;34162;-77
2023/03/31 02:28:20;;;;;;;12.15;8.63;;;;;;;10.43;92.41;99523.19;4416731;32;33252;-78
2023/03/31 02:30:52;;;;;;;13.07;9.32;;;;;;;10.39;90.65;99526.47;4420124;32;32859;-76
2023/03/31 02:33:20;;;;;;;12.43;8.98;;;;;;;9.91;92.16;99528.75;4424389;32;33724;-76
2023/03/31 02:35:47;;;;;;;14.35;9.45;;;;;;;9.89;93.15;99527.81;4395438;32;34327;-77
2023/03/31 02:38:15;;;;;;;14.75;9.77;;;;;;;9.40;93.93;99516.16;4411324;32;33382;-77
2023/03/31 02:40:42;;;;;;;13.82;9.25;;;;;;;9.19;96.28;99515.19;4421380;32;33466;-80
2023/03/31 02:43:10;;;;;;;13.02;8.93;;;;;;;9.16;97.69;99521.13;4444613;32;34759;-77
2023/03/31 02:45:44;;;;;;;13.20;9.27;;;;;;;9.36;97.62;99523.72;4406488;32;32949;-79
2023/03/31 02:48:25;;;;;;;13.22;9.20;;;;;;;9.75;93.77;99526.31;4400121;32;34158;-78
2023/03/31 02:51:21;;;;;;;12.20;8.85;;;;;;;8.97;96.60;99526.25;4458850;32;34043;-78
2023/03/31 02:54:18;;;;;;;14.50;9.52;;;;;;;8.55;100.00;99521.69;4427119;32;33950;-78
2023/03/31 02:57:01;;;;;;;15.05;9.05;;;;;;;8.77;99.61;99518.47;4436329;32;33589;-79
2023/03/31 02:59:44;;;;;;;13.57;8.90;;;;;;;8.98;98.38;99520.25;4437120;32;33074;-80
2023/03/31 03:02:46;;;;;;;12.75;9.30;;;;;;;9.26;97.06;99530.19;4396774;32;32836;-80
2023/03/31 03:05:40;;;;;;;11.90;8.83;;;;;;;9.54;94.25;99532.31;4416364;32;33098;-78
2023/03/31 03:08:27;;;;;;;12.15;8.68;;;;;;;8.95;95.91;99522.72;4366350;32;32747;-76
2023/03/31 03:11:10;;;;;;;12.68;8.70;;;;;;;8.51;98.64;99513.75;4412339;32;33905;-76
2023/03/31 03:13:50;;;;;;;12.97;9.23;;;;;;;8.32;98.92;99525.72;4451495;32;33053;-79
2023/03/31 03:16:41;;;;;;;13.68;9.02;;;;;;;8.24;100.00;99517.59;4394589;32;33197;-76
2023/03/31 03:19:09;;;;;;;13.48;9.90;;;;;;;8.01;100.00;99515.56;4442217;32;33578;-80
2023/03/31 03:21:37;;;;;;;14.73;9.50;;;;;;;7.83;100.00;99526.72;4389795;32;34160;-76
2023/03/31 03:24:05;;;;;;;13.93;9.63;;;;;;;7.60;100.00;99525.53;4453002;32;33725;-77
2023/03/31 03:26:34;;;;;;;15.70;10.48;;;;;;;7.68;100.00;99519.06;4415862;32;33899;-78
2023/03/31 03:29:01;;;;;;;15.68;9.77;;;;;;;7.63;100.00;99517.97;4408893;32;34533;-78
2023/03/31 03:31:29;;;;;;;15.52;10.02;;;;;;;7.73;100.00;99521.03;4411680;32;34442;-76
2023/03/31 03:33:56;;;;;;;16.50;10.20;;;;;;;7.85;100.00;99511.34;4401120;32;33767;-78
2023/03/31 03:36:24;;;;;;;15.77;10.18;;;;;;;8.07;100.00;99508.13;4437244;32;33581;-78
2023/03/31 03:38:52;;;;;;;15.77;10.18;;;;;;;8.48;98.80;99508.41;4462795;32;33261;-78
2023/03/31 03:41:19;;;;;;;15.38;9.15;;;;;;;8.94;95.97;99514.06;4418703;32;33767;-79
2023/03/31 03:43:47;;;;;;;17.47;9.80;;;;;;;9.17;93.95;99506.50;4451520;32;33931;-81
2023/03/31 03:46:15;;;;;;;18.08;10.85;;;;;;;9.11;92.47;99507.09;4404392;32;33968;-76
2023/03/31 03:48:42;;;;;;;17.60;10.10;;;;;;;8.87;93.83;99516.31;4415777;32;33556;-80
2023/03/31 03:51:10;;;;;;;18.87;11.45;;;;;;;8.59;94.59;99510.72;4434598;32;33389;-77
2023/03/31 03:53:37;;;;;;;21.75;13.90;;;;;;;8.31;96.24;99512.75;4403123;32;33596;-78
2023/03/31 03:56:05;;;;;;;22.80;13.50;;;;;;;8.14;97.58;99519.66;4437194;32;34048;-80
2023/03/31 03:58:33;;;;;;;22.73;14.30;;;;;;;7.90;99.43;99517.62;4398076;32;33950;-77
2023/03/31 04:01:01;;;;;;;32.25;20.37;;;;;;;7.80;100.00;99513.69;4393717;32;33531;-77
2023/03/31 04:03:30;;;;;;;43.13;27.95;;;;;;;7.75;100.00;99509.09;4387513;32;33656;-79
2023/03/31 04:05:57;;;;;;;26.60;17.37;;;;;;;8.22;100.00;99513.16;4414684;32;34640;-78
2023/03/31 04:08:25;;;;;;;21.87;15.05;;;;;;;8.28;98.09;99500.56;4410378;32;33337;-77
2023/03/31 04:10:52;;;;;;;20.05;12.68;;;;;;;8.27;98.24;99496.22;4457460;32;34466;-75
2023/03/31 04:13:20;;;;;;;19.25;12.68;;;;;;;8.94;95.51;99493.41;4457697;32;33742;-79
2023/03/31 04:15:48;;;;;;;20.92;14.20;;;;;;;9.27;92.67;99487.12;4427303;32;32816;-80
2023/03/31 04:18:21;;;;;;;23.33;13.88;;;;;;;8.82;93.91;99488.56;4400921;32;33446;-77
2023/03/31 04:21:02;;;;;;;21.10;12.27;;;;;;;8.53;95.44;99483.72;4420586;32;33387;-78
2023/03/31 04:23:32;;;;;;;15.40;10.80;;;;;;;8.32;96.68;99481.84;4380928;32;33981;-76
2023/03/31 04:26:00;;;;;;;20.77;11.88;;;;;;;7.88;97.41;99486.59;4415062;32;34554;-80
2023/03/31 04:28:33;;;;;;;16.90;12.35;;;;;;;7.76;99.58;99492.81;4422413;32;34346;-77
2023/03/31 04:31:02;;;;;;;17.48;12.15;;;;;;;7.82;99.97;99501.75;4401355;32;34124;-75
2023/03/31 04:33:32;;;;;;;17.57;11.20;;;;;;;7.41;100.00;99507.34;4374762;32;33419;-76
2023/03/31 04:36:05;;;;;;;20.85;12.02;;;;;;;7.43;100.00;99486.00;4384756;32;33590;-78
2023/03/31 04:38:33;;;;;;;18.83;11.82;;;;;;;7.42;100.00;99503.97;4435570;32;32739;-77
2023/03/31 04:41:01;;;;;;;19.58;12.18;;;;;;;7.60;99.99;99504.91;4399563;32;33825;-78
2023/03/31 04:43:28;;;;;;;17.23;11.85;;;;;;;7.44;100.00;99497.22;4418691;32;33416;-77
2023/03/31 04:45:56;;;;;;;19.15;12.10;;;;;;;7.68;100.00;99488.13;4427500;32;34136;-77
2023/03/31 04:48:24;;;;;;;17.87;11.73;;;;;;;7.82;99.45;99491.44;4430068;32;34088;-75
2023/03/31 04:50:51;;;;;;;19.75;12.00;;;;;;;8.33;97.17;99486.22;4426522;32;34318;-75
2023/03/31 04:53:19;;;;;;;18.87;11.45;;;;;;;8.80;94.80;99479.84;4403523;32;33640;-76
2023/03/31 04:55:48;;;;;;;16.00;11.63;;;;;;;8.82;93.32;99482.50;4430871;32;32288;-77
2023/03/31 04:58:15;;;;;;;18.08;12.65;;;;;;;8.26;97.21;99474.69;4398776;32;33651;-78
2023/03/31 05:00:43;;;;;;;19.33;12.32;;;;;;;8.11;98.86;99475.63;4439155;32;34194;-76
2023/03/31 05:03:10;;;;;;;16.08;11.50;;;;;;;7.66;100.00;99479.44;4389992;32;32616;-77
2023/03/31 05:05:38;;;;;;;16.48;12.90;;;;;;;7.34;100.00;99474.31;4393128;32;34407;-78
2023/03/31 05:08:06;;;;;;;19.92;13.70;;;;;;;7.07;100.00;99479.81;4424046;32;32582;-80
2023/03/31 05:10:34;;;;;;;20.17;13.68;;;;;;;7.11;100.00;99471.44;4401048;32;33492;-79
2023/03/31 05:13:02;;;;;;;19.30;14.30;;;;;;;7.13;100.00;99468.91;4410015;32;33652;-77
2023/03/31 05:15:30;;;;;;;22.15;14.65;;;;;;;7.43;100.00;99469.66;4422558;32;33719;-76
2023/03/31 05:17:59;;;;;;;20.80;14.63;;;;;;;7.68;100.00;99461.47;4416593;32;33706;-78
2023/03/31 05:20:27;;;;;;;20.48;14.32;;;;;;;7.90;100.00;99467.72;4424079;32;34425;-76
2023/03/31 05:22:54;;;;;;;24.58;16.25;;;;;;;8.19;100.00;99461.41;4420028;32;33483;-76
2023/03/31 05:25:22;;;;;;;23.62;16.33;;;;;;;8.56;100.00;99464.09;4416331;32;34699;-79
2023/03/31 05:27:49;;;;;;;20.77;15.48;;;;;;;8.80;98.26;99464.34;4391233;32;33187;-76
2023/03/31 05:30:17;;;;;;;21.25;15.15;;;;;;;9.16;96.29;99466.84;4388280;32;33891;-78
2023/03/31 05:32:45;;;;;;;23.62;16.08;;;;;;;9.34;94.46;99460.75;4408101;32;32772;-79
2023/03/31 05:35:12;;;;;;;24.33;15.98;;;;;;;9.30;95.16;99462.31;4411039;32;34785;-78
2023/03/31 05:37:40;;;;;;;21.12;14.27;;;;;;;9.52;93.83;99458.06;4383781;32;33658;-77
2023/03/31 05:40:08;;;;;;;21.10;14.93;;;;;;;9.37;94.84;99463.47;4414177;32;34246;-77
2023/03/31 05:42:36;;;;;;;19.13;14.80;;;;;;;9.29;95.75;99470.88;4398827;32;34554;-79
2023/03/31 05:45:05;;;;;;;19.48;14.20;;;;;;;8.82;99.06;99464.44;4410961;32;33655;-77
2023/03/31 05:47:35;;;;;;;18.90;14.30;;;;;;;9.13;97.86;99464.12;4421160;32;33449;-79
2023/03/31 05:50:06;;;;;;;19.90;14.43;;;;;;;9.23;98.39;99460.25;4410487;32;33346;-77
2023/03/31 05:52:34;;;;;;;18.67;13.85;;;;;;;9.39;99.39;99452.37;4407868;32;33151;-80
2023/03/31 05:55:03;;;;;;;22.20;16.35;;;;;;;9.45;100.00;99464.69;4405242;32;34654;-79
2023/03/31 05:57:31;;;;;;;28.57;21.97;;;;;;;9.45;100.00;99467.28;4444341;32;33509;-77
2023/03/31 06:00:00;;;;;;;31.20;23.17;;;;;;;9.43;100.00;99453.41;4408112;32;33586;-78
2023/03/31 06:02:27;;;;;;;29.67;22.23;;;;;;;9.73;100.00;99458.09;4381844;32;32150;-77
2023/03/31 06:04:55;;;;;;;21.30;14.93;;;;;;;10.20;100.00;99452.31;4430109;32;34144;-80
2023/03/31 06:07:23;;;;;;;18.98;12.65;;;;;;;10.29;98.25;99450.91;4404411;32;33359;-75
2023/03/31 06:09:51;;;;;;;16.77;11.05;;;;;;;10.40;97.32;99452.28;4390761;32;34377;-75
2023/03/31 06:12:20;;;;;;;15.48;10.68;;;;;;;10.60;95.63;99447.88;4393848;32;33433;-77
2023/03/31 06:14:48;;;;;;;13.98;9.82;;;;;;;10.71;93.95;99451.75;4387525;32;34066;-78
2023/03/31 06:17:15;;;;;;;13.93;9.50;;;;;;;11.39;91.49;99449.94;4382477;32;33169;-75
2023/03/31 06:19:43;;;;;;;13.98;9.73;;;;;;;11.53;89.80;99437.50;4381015;32;34387;-76
2023/03/31 06:22:10;;;;;;;13.70;11.18;;;;;;;12.13;86.64;99436.94;4405651;32;33588;-78
2023/03/31 06:24:38;;;;;;;16.30;10.90;;;;;;;12.20;85.97;99432.81;4404357;32;33739;-76
2023/03/31 06:27:06;;;;;;;15.70;11.95;;;;;;;11.92;86.68;99429.34;4389499;32;33640;-76
2023/03/31 06:29:34;;;;;;;17.40;12.02;;;;;;;11.81;86.58;99433.25;4398539;32;33476;-78
2023/03/31 06:32:03;;;;;;;17.87;12.25;;;;;;;11.72;86.23;99428.59;4399299;32;33921;-77
2023/03/31 06:34:31;;;;;;;15.20;12.27;;;;;;;11.49;86.69;99435.63;4410208;32;33832;-79
2023/03/31 06:37:00;;;;;;;17.85;11.65;;;;;;;11.65;86.66;99428.34;4414042;32;33819;-77
2023/03/31 06:39:27;;;;;;;14.15;10.10;;;;;;;11.70;86.91;99434.59;4405727;32;34478;-80
2023/03/31 06:41:55;;;;;;;14.15;10.57;;;;;;;12.08;85.42;99430.72;4411862;32;34614;-79
2023/03/31 06:44:24;;;;;;;12.85;9.95;;;;;;;12.11;85.08;99425.62;4409423;32;33537;-80
2023/03/31 06:46:52;;;;;;;16.83;10.23;;;;;;;11.86;87.39;99431.69;4409645;32;34532;-77
2023/03/31 06:49:20;;;;;;;12.85;9.23;;;;;;;11.84;88.80;99428.16;4415632;32;34635;-80
2023/03/31 06:51:47;;;;;;;13.30;8.50;;;;;;;11.50;90.60;99439.09;4382246;32;34391;-80
2023/03/31 06:54:15;;;;;;;27.42;14.15;;;;;;;11.25;91.95;99450.31;4386572;32;33902;-79
2023/03/31 06:56:43;;;;;;;28.00;14.52;;;;;;;11.41;90.21;99450.91;4388893;32;32949;-78
2023/03/31 06:59:11;;;;;;;14.27;8.45;;;;;;;11.60;88.19;99455.00;4417857;32;34842;-78
2023/03/31 07:01:41;;;;;;;11.05;7.10;;;;;;;11.97;85.86;99445.91;4442860;32;33787;-76
2023/03/31 07:04:09;;;;;;;9.75;5.85;;;;;;;12.34;83.81;99436.75;4402342;32;32290;-76
2023/03/31 07:06:37;;;;;;;10.77;6.53;;;;;;;12.24;81.01;99439.88;4394347;32;33539;-75
2023/03/31 07:09:05;;;;;;;11.48;6.75;;;;;;;12.56;80.00;99434.84;4429526;32;33728;-78
2023/03/31 07:11:33;;;;;;;9.30;5.80;;;;;;;12.85;79.50;99434.84;4449059;32;33383;-75
2023/03/31 07:14:01;;;;;;;9.73;6.07;;;;;;;13.38;77.95;99440.69;4433161;32;33694;-79
2023/03/31 07:16:30;;;;;;;10.68;7.32;;;;;;;13.41;78.85;99438.19;4422993;32;34038;-77
2023/03/31 07:19:03;;;;;;;13.70;7.53;;;;;;;13.60;78.49;99428.28;4408012;32;32534;-78
2023/03/31 07:21:30;;;;;;;14.82;9.20;;;;;;;14.50;74.33;99427.03;4419158;32;33145;-79
2023/03/31 07:23:58;;;;;;;10.70;6.53;;;;;;;14.15;76.67;99414.06;4409971;32;33748;-79
2023/03/31 07:26:26;;;;;;;9.07;5.10;;;;;;;13.96;76.44;99416.22;4399240;32;32175;-79
2023/03/31 07:28:56;;;;;;;8.23;4.68;;;;;;;13.32;79.30;99417.13;4379917;32;33231;-78
2023/03/31 07:31:23;;;;;;;8.10;4.47;;;;;;;13.32;78.62;99419.72;4387378;32;32117;-77
2023/03/31 07:33:51;;;;;;;9.50;4.57;;;;;;;13.31;79.29;99415.38;4416087;32;33997;-79
2023/03/31 07:36:19;;;;;;;7.15;4.55;;;;;;;13.49;76.77;99405.47;4415384;32;33004;-79
2023/03/31 07:38:48;;;;;;;9.98;4.65;;;;;;;13.90;75.15;99390.00;4386557;32;34177;-77
2023/03/31 07:41:18;;;;;;;7.72;3.83;;;;;;;14.02;76.71;99388.56;4403384;32;33414;-77
2023/03/31 07:43:46;;;;;;;8.25;3.70;;;;;;;13.83;75.74;99395.03;4379313;32;33816;-76
2023/03/31 07:46:16;;;;;;;6.25;3.85;;;;;;;14.15;73.41;99388.00;4427060;32;33184;-78
2023/03/31 07:48:45;;;;;;;10.35;5.68;;;;;;;14.23;73.67;99382.97;4381204;32;33139;-78
2023/03/31 07:51:15;;;;;;;10.02;6.00;;;;;;;14.24;78.15;99383.03;4365373;32;33681;-78
2023/03/31 07:53:45;;;;;;;8.67;5.93;;;;;;;13.98;79.99;99389.34;4390546;32;35104;-77
2023/03/31 07:56:12;;;;;;;7.95;4.70;;;;;;;13.94;78.30;99386.63;4417557;32;34141;-78
2023/03/31 07:58:40;;;;;;;8.20;5.07;;;;;;;14.04;78.69;99389.47;4378972;32;33849;-75
2023/03/31 08:01:08;;;;;;;8.88;5.70;;;;;;;14.09;78.84;99380.94;4384684;32;34103;-75
2023/03/31 08:03:37;;;;;;;9.70;5.67;;;;;;;14.07;78.55;99382.63;4404054;32;34522;-76
2023/03/31 08:06:05;;;;;;;7.85;4.95;;;;;;;14.50;77.52;99381.00;4413989;32;33318;-76
2023/03/31 08:08:33;;;;;;;9.07;5.47;;;;;;;14.45;74.65;99377.44;4414172;32;34564;-76
2023/03/31 08:11:00;;;;;;;8.43;5.30;;;;;;;14.65;74.63;99370.06;4388315;32;33818;-79
2023/03/31 08:13:28;;;;;;;9.57;5.30;;;;;;;14.57;76.83;99361.22;4368200;32;33331;-76
2023/03/31 08:15:56;;;;;;;9.73;5.50;;;;;;;14.38;73.63;99359.00;4378107;32;33021;-77
2023/03/31 08:18:24;;;;;;;8.07;4.35;;;;;;;14.80;74.94;99353.00;4388607;32;34616;-76
2023/03/31 08:20:51;;;;;;;;;;;;;;;15.12;71.31;99351.00;4382817;32;34030;-75
2023/03/31 08:23:19;;;;;;;;;;;;;;;15.68;67.66;99347.66;4402836;32;34556;-77
2023/03/31 08:25:47;;;;;;;;;;;;;;;16.21;69.66;99350.28;4394082;32;34172;-77
2023/03/31 08:28:14;;;;;;;;;;;;;;;16.12;67.80;99344.94;4381994;32;34839;-77
2023/03/31 08:30:42;;;;;;;;;;;;;;;16.67;68.55;99345.72;4362367;32;35902;-76
2023/03/31 08:33:13;;;;;;;7.25;3.90;;;;;;;17.05;67.06;99331.34;4418595;32;34369;-76
2023/03/31 08:35:40;;;;;;;7.50;4.12;;;;;;;16.77;66.89;99330.13;4423048;32;33030;-76
2023/03/31 08:38:11;;;;;;;6.18;3.45;;;;;;;16.24;66.74;99313.75;4370822;32;35152;-78
2023/03/31 08:40:42;;;;;;;5.93;3.42;;;;;;;16.33;64.22;99317.34;4419051;32;34810;-76
2023/03/31 08:43:15;;;;;;;;;;;;;;;16.15;65.71;99316.25;4384965;32;34102;-76
2023/03/31 08:45:44;;;;;;;;;;;;;;;16.19;66.58;99312.81;4390494;32;34013;-76
2023/03/31 08:48:24;;;;;;;;;;;;;;;16.04;70.33;99309.97;4409871;32;34032;-76
2023/03/31 08:50:54;;;;;;;;;;;;;;;16.35;69.91;99295.59;4428510;32;34257;-75
2023/03/31 08:53:25;;;;;;;;;;;;;;;16.21;67.59;99295.41;4439441;32;34189;-76
2023/03/31 08:55:53;;;;;;;;;;;;;;;16.69;67.60;99291.69;4428313;32;33042;-75
2023/03/31 08:58:20;;;;;;;;;;;;;;;16.47;68.11;99292.25;4448763;32;35166;-75
2023/03/31 09:01:00;;;;;;;;;;;;;;;16.46;67.65;99282.69;4454113;32;35370;-78
2023/03/31 09:03:35;;;;;;;;;;;;;;;16.21;67.94;99274.50;4452755;32;33700;-74
2023/03/31 09:06:28;;;;;;;;;;;;;;;16.28;67.95;99278.97;4454190;32;34445;-75
2023/03/31 09:08:56;;;;;;;;;;;;;;;16.30;67.98;99274.66;4418008;32;33998;-79
2023/03/31 09:11:56;;;;;;;;;;;;;;;16.59;67.78;99265.38;4452634;32;35167;-77
2023/03/31 09:14:24;;;;;;;;;;;;;;;16.50;66.35;99263.56;4424384;32;34151;-77
2023/03/31 09:16:52;;;;;;;;;;;;;;;16.64;69.56;99261.97;4424867;32;33604;-77
2023/03/31 09:19:22;;;;;;;;;;;;;;;17.08;70.41;99272.09;4429599;32;34276;-78
2023/03/31 09:21:50;;;;;;;;;;;;;;;16.79;65.93;99261.28;4439510;32;33307;-76
2023/03/31 09:24:19;;;;;;;;;;;;;;;16.95;64.65;99251.00;4439439;32;35095;-79
2023/03/31 09:26:57;;;;;;;;;;;;;;;16.99;66.51;99253.66;4449227;32;33280;-78
2023/03/31 09:29:28;;;;;;;;;;;;;;;17.18;66.46;99251.25;4436356;32;34266;-77
2023/03/31 09:32:01;;;;;;;;;;;;;;;17.51;66.34;99249.78;4440134;32;33980;-77
2023/03/31 09:34:30;;;;;;;;;;;;;;;17.71;65.23;99235.06;4448551;32;34518;-76
2023/03/31 09:36:57;;;;;;;;;;;;;;;17.19;61.89;99234.66;4438195;32;34380;-76
2023/03/31 09:39:25;;;;;;;;;;;;;;;17.80;65.27;99227.28;4451662;32;34766;-76
2023/03/31 09:41:54;;;;;;;;;;;;;;;17.99;66.20;99219.56;4433274;32;34197;-76
2023/03/31 09:44:31;;;;;;;;;;;;;;;18.00;62.68;99223.94;4451353;32;34252;-77
2023/03/31 09:46:59;;;;;;;;;;;;;;;18.47;63.36;99218.91;4437317;32;33360;-78
2023/03/31 09:49:27;;;;;;;;;;;;;;;18.23;62.97;99211.84;4372467;32;34016;-75
2023/03/31 09:51:59;;;;;;;;;;;;;;;18.24;59.83;99210.94;4415796;32;33798;-74
2023/03/31 09:54:29;;;;;;;;;;;;;;;17.80;61.67;99208.06;4397084;32;35115;-76
2023/03/31 09:56:57;;;;;;;;;;;;;;;17.59;61.64;99208.81;4414996;32;34321;-80
2023/03/31 09:59:31;;;;;;;;;;;;;;;17.73;63.10;99212.41;4437072;32;33909;-78
2023/03/31 10:02:01;;;;;;;;;;;;;;;17.83;64.31;99198.50;4375344;32;34224;-75
2023/03/31 10:04:29;;;;;;;;;;;;;;;17.83;61.96;99187.16;4404122;32;33442;-79
2023/03/31 10:06:58;;;;;;;;;;;;;;;17.92;62.76;99181.09;4427888;32;33963;-77
2023/03/31 10:09:26;;;;;;;;;;;;;;;18.21;61.83;99189.94;4395671;32;33565;-80
2023/03/31 10:12:26;;;;;;;;;;;;;;;17.88;60.32;99186.31;4440399;32;34627;-77
2023/03/31 10:14:59;;;;;;;;;;;;;;;18.07;62.62;99176.78;4345409;32;34046;-79
2023/03/31 10:17:26;;;;;;;;;;;;;;;17.63;60.95;99173.91;4402733;32;32306;-78
2023/03/31 10:19:58;;;;;;;;;;;;;;;17.32;57.35;99167.59;4399338;32;34125;-79
2023/03/31 10:22:26;;;;;;;;;;;;;;;17.05;58.08;99169.13;4394166;32;34304;-79
2023/03/31 10:24:54;;;;;;;;;;;;;;;16.83;58.59;99162.84;4394694;32;34834;-79
2023/03/31 10:27:21;;;;;;;;;;;;;;;16.62;60.18;99159.09;4428113;32;33616;-79
2023/03/31 10:29:52;;;;;;;;;;;;;;;17.08;62.46;99167.41;4409217;32;34491;-77
2023/03/31 10:32:33;;;;;;;;;;;;;;;17.27;61.90;99157.09;4422861;32;33814;-78
2023/03/31 10:35:19;;;;;;;;;;;;;;;17.10;63.16;99152.59;4382131;32;34314;-77
2023/03/31 10:37:47;;;;;;;;;;;;;;;16.83;61.65;99147.13;4392862;32;33793;-79
2023/03/31 10:40:15;;;;;;;;;;;;;;;16.70;63.00;99146.97;4374553;32;34521;-75
2023/03/31 10:42:45;;;;;;;;;;;;;;;16.65;62.40;99137.31;4387816;32;34160;-77
2023/03/31 10:45:22;;;;;;;;;;;;;;;16.87;61.35;99143.69;4384550;32;33817;-77
2023/03/31 10:48:03;;;;;;;;;;;;;;;16.85;60.09;99140.19;4383242;32;33641;-77
2023/03/31 10:50:31;;;;;;;;;;;;;;;17.30;60.78;99129.19;4389611;32;34374;-79
2023/03/31 10:53:12;;;;;;;;;;;;;;;17.96;60.61;99127.84;4402557;32;35006;-78
2023/03/31 10:55:43;;;;;;;;;;;;;;;17.66;55.58;99121.56;4454665;32;34505;-78
2023/03/31 10:58:17;;;;;;;;;;;;;;;17.77;55.46;99111.13;4396068;32;33520;-77
2023/03/31 11:00:48;;;;;;;;;;;;;;;17.92;53.86;99112.97;4419305;32;34286;-79
2023/03/31 11:03:24;;;;;;;;;;;;;;;18.52;55.87;99116.63;4441312;32;33668;-80
2023/03/31 11:05:53;;;;;;;;;;;;;;;18.60;54.98;99114.91;4388099;32;33500;-76
2023/03/31 11:08:59;;;;;;;;;;;;;;;18.43;55.49;99107.00;4439491;32;33871;-79
2023/03/31 11:11:33;;;;;;;;;;;;;;;19.13;53.95;99109.72;4348731;32;33614;-77
2023/03/31 11:14:03;;;;;;;;;;;;;;;18.84;52.96;99098.34;4390957;32;33859;-78
2023/03/31 11:16:36;;;;;;;;;;;;;;;18.90;56.06;99097.47;4363055;32;34294;-76
2023/03/31 11:19:20;;;;;;;;;;;;;;;18.39;54.76;99109.63;4431496;32;33141;-78
2023/03/31 11:22:08;;;;;;;;;;;;;;;18.21;55.23;99099.97;4388534;32;34931;-77
2023/03/31 11:24:44;;;;;;;;;;;;;;;18.16;57.30;99093.84;4393327;32;33941;-77
2023/03/31 11:27:15;;;;;;;;;;;;;;;17.97;58.56;99078.06;4392657;32;34201;-76
2023/03/31 11:30:00;;;;;;;;;;;;;;;17.82;56.98;99076.22;4431123;32;33245;-77
2023/03/31 11:32:37;;;;;;;;;;;;;;;17.68;58.18;99068.31;4398120;32;34480;-76
2023/03/31 11:35:08;;;;;;;;;;;;;;;18.08;57.76;99057.13;4401148;32;34934;-78
2023/03/31 11:37:40;;;;;;;;;;;;;;;18.07;60.22;99042.28;4386971;32;35384;-77
2023/03/31 11:40:26;;;;;;;;;;;;;;;17.65;60.25;99025.50;4375219;32;33263;-75
2023/03/31 11:42:55;;;;;;;;;;;;;;;17.52;62.82;99023.72;4388791;32;33781;-77
2023/03/31 11:45:25;;;;;;;;;;;;;;;17.49;61.74;99019.34;4396510;32;34158;-75
2023/03/31 11:47:53;;;;;;;;;;;;;;;17.75;60.18;99016.84;4414347;32;34314;-78
2023/03/31 11:50:25;;;;;;;;;;;;;;;18.00;59.25;99015.19;4375890;32;34959;-79
2023/03/31 11:52:57;;;;;;;;;;;;;;;18.27;59.07;99009.13;4399558;32;33463;-79
2023/03/31 11:55:26;;;;;;;;;;;;;;;18.13;59.26;98997.72;4393600;32;34756;-80
2023/03/31 11:57:53;;;;;;;;;;;;;;;18.22;60.97;99002.97;4406415;32;35143;-78
2023/03/31 12:00:31;;;;;;;;;;;;;;;18.05;60.00;98995.09;4411870;32;33406;-78
2023/03/31 12:03:17;;;;;;;;;;;;;;;18.38;58.90;98987.25;4385289;32;33510;-79
2023/03/31 12:05:46;;;;;;;;;;;;;;;19.24;59.50;98974.91;4410984;32;34492;-75
2023/03/31 12:08:15;;;;;;;;;;;;;;;19.14;56.81;98969.69;4379181;32;34368;-80